Time;durP1;ratioP1;P1;durP2;ratioP2;P2;SDS_P1;SDS_P2;PMS_P1;PMS_P2;Temp;Humidity;BMP_temperature;BMP_pressure;BME280_temperature;BME280_humidity;BME280_pressure;Samples;Min_cycle;Max_cycle;Signal;HPM_P1;HPM_P2
2021/09/12 00:01:58;;;;;;;9.52;6.00;;;;;;;;;;5113678;28;20016;-82
2021/09/12 00:04:24;;;;;;;12.57;6.28;;;;;;;;;;5113920;28;20024;-82
2021/09/12 00:06:50;;;;;;;13.98;6.18;;;;;;;;;;5112801;28;20115;-82
2021/09/12 00:09:16;;;;;;;9.93;6.10;;;;;;;;;;5100559;28;20032;-82
2021/09/12 00:11:42;;;;;;;12.98;6.55;;;;;;;;;;5099952;28;20294;-82
2021/09/12 00:14:09;;;;;;;11.77;5.90;;;;;;;;;;5100123;28;20024;-82
2021/09/12 00:16:35;;;;;;;10.55;5.55;;;;;;;;;;5099557;28;20028;-82
2021/09/12 00:19:01;;;;;;;10.35;5.80;;;;;;;;;;5100042;28;20099;-82
2021/09/12 00:21:27;;;;;;;9.35;5.93;;;;;;;;;;5098999;28;20028;-82
2021/09/12 00:23:53;;;;;;;10.43;5.85;;;;;;;;;;5099949;28;20027;-83
2021/09/12 00:26:19;;;;;;;8.02;5.93;;;;;;;;;;5099784;28;20055;-83
2021/09/12 00:28:45;;;;;;;9.15;5.65;;;;;;;;;;5099753;28;20061;-82
2021/09/12 00:31:11;;;;;;;12.35;5.50;;;;;;;;;;5099749;28;20046;-82
2021/09/12 00:33:37;;;;;;;8.38;5.53;;;;;;;;;;5099703;28;20426;-82
2021/09/12 00:36:04;;;;;;;11.23;5.45;;;;;;;;;;5099520;28;20119;-83
2021/09/12 00:38:30;;;;;;;14.02;6.25;;;;;;;;;;5099820;28;20035;-83
2021/09/12 00:40:57;;;;;;;8.93;5.95;;;;;;;;;;5099507;28;20018;-82
2021/09/12 00:43:23;;;;;;;13.57;6.53;;;;;;;;;;5099475;28;20473;-82
2021/09/12 00:45:56;;;;;;;12.00;6.00;;;;;;;;;;5099463;28;20027;-82
2021/09/12 00:48:23;;;;;;;12.52;6.93;;;;;;;;;;5099383;28;20031;-82
2021/09/12 00:50:50;;;;;;;12.63;6.57;;;;;;;;;;5099410;28;20016;-82
2021/09/12 00:53:17;;;;;;;13.68;6.25;;;;;;;;;;5099614;28;20020;-82
2021/09/12 00:55:44;;;;;;;12.43;5.60;;;;;;;;;;5099126;28;20441;-82
2021/09/12 00:58:20;;;;;;;11.25;6.30;;;;;;;;;;5098456;28;20024;-82
2021/09/12 01:00:46;;;;;;;9.32;5.80;;;;;;;;;;5099208;28;20043;-82
2021/09/12 01:03:12;;;;;;;9.05;6.32;;;;;;;;;;5098050;28;20052;-82
2021/09/12 01:05:38;;;;;;;7.68;5.50;;;;;;;;;;5099141;28;20027;-82
2021/09/12 01:08:06;;;;;;;10.15;5.40;;;;;;;;;;5098300;28;20040;-82
2021/09/12 01:10:32;;;;;;;11.45;5.78;;;;;;;;;;5098082;28;20409;-83
2021/09/12 01:12:58;;;;;;;10.27;5.53;;;;;;;;;;5097967;28;20032;-82
2021/09/12 01:15:24;;;;;;;10.95;5.90;;;;;;;;;;5098833;28;20085;-82
2021/09/12 01:17:50;;;;;;;12.63;6.35;;;;;;;;;;5098981;28;20031;-82
2021/09/12 01:20:16;;;;;;;11.75;6.28;;;;;;;;;;5097963;28;20035;-82
2021/09/12 01:22:42;;;;;;;12.15;7.00;;;;;;;;;;5097934;28;20028;-82
2021/09/12 01:25:08;;;;;;;15.25;6.57;;;;;;;;;;5098790;28;20070;-82
2021/09/12 01:27:34;;;;;;;13.15;6.68;;;;;;;;;;5097630;28;20039;-82
2021/09/12 01:30:01;;;;;;;13.45;7.15;;;;;;;;;;5098436;28;20020;-82
2021/09/12 01:32:27;;;;;;;12.23;6.90;;;;;;;;;;5097823;28;20509;-82
2021/09/12 01:34:53;;;;;;;13.38;7.20;;;;;;;;;;5098704;28;20047;-82
2021/09/12 01:37:19;;;;;;;13.77;7.25;;;;;;;;;;5098725;28;20028;-83
2021/09/12 01:39:45;;;;;;;13.07;7.10;;;;;;;;;;5097699;28;20032;-83
2021/09/12 01:42:11;;;;;;;11.48;7.07;;;;;;;;;;5098366;28;20067;-82
2021/09/12 01:44:37;;;;;;;12.65;7.47;;;;;;;;;;5098346;28;20027;-82
2021/09/12 01:47:04;;;;;;;11.05;7.28;;;;;;;;;;5098384;28;20028;-82
2021/09/12 01:49:30;;;;;;;11.60;7.22;;;;;;;;;;5098229;28;20032;-83
2021/09/12 01:51:56;;;;;;;12.93;7.68;;;;;;;;;;5097510;28;20032;-82
2021/09/12 01:54:22;;;;;;;11.88;7.03;;;;;;;;;;5098146;28;20322;-82
2021/09/12 01:56:48;;;;;;;16.33;6.65;;;;;;;;;;5098133;28;20472;-82
2021/09/12 01:59:14;;;;;;;13.63;7.40;;;;;;;;;;5098028;28;20020;-82
2021/09/12 02:01:40;;;;;;;12.80;7.07;;;;;;;;;;5097697;28;20452;-82
2021/09/12 02:04:06;;;;;;;15.90;7.72;;;;;;;;;;5098307;28;20042;-82
2021/09/12 02:06:32;;;;;;;13.45;7.68;;;;;;;;;;5097923;28;20093;-81
2021/09/12 02:08:58;;;;;;;13.38;7.13;;;;;;;;;;5096880;28;20027;-82
2021/09/12 02:11:24;;;;;;;13.20;7.20;;;;;;;;;;5097825;28;20028;-82
2021/09/12 02:13:50;;;;;;;10.52;7.05;;;;;;;;;;5097550;28;20028;-82
2021/09/12 02:16:17;;;;;;;15.10;7.25;;;;;;;;;;5097657;28;20028;-83
2021/09/12 02:18:43;;;;;;;13.32;7.40;;;;;;;;;;5096740;28;20340;-83
2021/09/12 02:21:10;;;;;;;12.65;7.38;;;;;;;;;;5097813;28;20024;-83
2021/09/12 02:23:36;;;;;;;12.80;7.68;;;;;;;;;;5096760;28;20016;-82
2021/09/12 02:26:02;;;;;;;10.68;7.50;;;;;;;;;;5097652;28;20028;-82
2021/09/12 02:28:28;;;;;;;11.05;7.35;;;;;;;;;;5096509;28;20118;-83
2021/09/12 02:30:54;;;;;;;11.13;7.25;;;;;;;;;;5097377;28;20028;-82
2021/09/12 02:33:20;;;;;;;13.40;7.03;;;;;;;;;;5097807;28;20314;-82
2021/09/12 02:35:46;;;;;;;14.55;7.43;;;;;;;;;;5096586;28;20084;-82
2021/09/12 02:38:12;;;;;;;15.63;7.95;;;;;;;;;;5097548;28;20024;-82
2021/09/12 02:40:39;;;;;;;14.15;6.95;;;;;;;;;;5097443;28;20218;-82
2021/09/12 02:43:06;;;;;;;12.60;7.88;;;;;;;;;;5096574;28;20036;-82
2021/09/12 02:45:33;;;;;;;12.32;7.15;;;;;;;;;;5097364;28;20024;-82
2021/09/12 02:47:59;;;;;;;13.25;8.10;;;;;;;;;;5096278;28;20333;-82
2021/09/12 02:50:25;;;;;;;12.20;7.93;;;;;;;;;;5096528;28;20321;-83
2021/09/12 02:52:51;;;;;;;10.13;6.60;;;;;;;;;;5096437;28;20353;-82
2021/09/12 02:55:17;;;;;;;13.10;7.97;;;;;;;;;;5097815;28;20043;-82
2021/09/12 02:57:43;;;;;;;11.95;7.10;;;;;;;;;;5096095;28;20024;-82
2021/09/12 03:00:09;;;;;;;10.98;7.22;;;;;;;;;;5096198;28;20051;-82
2021/09/12 03:02:35;;;;;;;12.07;7.53;;;;;;;;;;5097236;28;20046;-82
2021/09/12 03:05:01;;;;;;;17.23;7.75;;;;;;;;;;5096443;28;20032;-82
2021/09/12 03:07:27;;;;;;;16.17;8.20;;;;;;;;;;5096841;28;20051;-82
2021/09/12 03:09:53;;;;;;;9.52;7.15;;;;;;;;;;5097108;28;20547;-82
2021/09/12 03:12:19;;;;;;;11.73;7.78;;;;;;;;;;5097020;28;20406;-82
2021/09/12 03:14:45;;;;;;;15.85;8.32;;;;;;;;;;5096992;28;20405;-82
2021/09/12 03:17:12;;;;;;;17.02;8.05;;;;;;;;;;5096970;28;20428;-82
2021/09/12 03:19:38;;;;;;;11.30;7.53;;;;;;;;;;5097030;28;20024;-82
2021/09/12 03:22:05;;;;;;;15.25;7.28;;;;;;;;;;5097054;28;20024;-82
2021/09/12 03:24:34;;;;;;;17.30;7.80;;;;;;;;;;5097226;28;20393;-82
2021/09/12 03:27:02;;;;;;;13.45;7.40;;;;;;;;;;5097105;28;20032;-82
2021/09/12 03:29:28;;;;;;;13.90;7.85;;;;;;;;;;5096857;28;20036;-82
2021/09/12 03:31:56;;;;;;;11.48;8.02;;;;;;;;;;5096927;28;20394;-82
2021/09/12 03:34:24;;;;;;;12.00;7.25;;;;;;;;;;5097177;28;20020;-82
2021/09/12 03:36:50;;;;;;;12.60;7.93;;;;;;;;;;5096914;28;20111;-81
2021/09/12 03:39:16;;;;;;;12.77;6.97;;;;;;;;;;5096891;28;20038;-82
2021/09/12 03:41:42;;;;;;;15.07;7.65;;;;;;;;;;5096217;28;20032;-82
2021/09/12 03:44:08;;;;;;;12.68;7.95;;;;;;;;;;5099481;28;20051;-82
2021/09/12 03:46:34;;;;;;;15.00;7.97;;;;;;;;;;5100531;28;20035;-82
2021/09/12 03:49:00;;;;;;;12.73;7.43;;;;;;;;;;5099525;28;20024;-82
2021/09/12 03:51:27;;;;;;;13.98;7.65;;;;;;;;;;5100479;28;20028;-82
2021/09/12 03:53:53;;;;;;;11.95;8.00;;;;;;;;;;5100745;28;20032;-82
2021/09/12 03:56:21;;;;;;;16.25;7.22;;;;;;;;;;5099324;28;20047;-82
2021/09/12 03:58:47;;;;;;;14.88;7.97;;;;;;;;;;5100396;28;20027;-82
2021/09/12 04:01:16;;;;;;;13.90;7.38;;;;;;;;;;5099402;28;20646;-82
2021/09/12 04:03:42;;;;;;;17.73;7.88;;;;;;;;;;5099334;28;20425;-82
2021/09/12 04:06:08;;;;;;;14.85;7.18;;;;;;;;;;5099937;28;20035;-82
2021/09/12 04:08:34;;;;;;;15.35;7.25;;;;;;;;;;5099154;28;20028;-82
2021/09/12 04:11:00;;;;;;;12.85;6.80;;;;;;;;;;5100076;28;20021;-82
2021/09/12 04:13:26;;;;;;;12.55;6.90;;;;;;;;;;5100182;28;20324;-82
2021/09/12 04:15:52;;;;;;;12.48;7.38;;;;;;;;;;5100186;28;20437;-82
2021/09/12 04:18:18;;;;;;;14.35;7.13;;;;;;;;;;5100021;28;20303;-81
2021/09/12 04:20:48;;;;;;;9.57;6.80;;;;;;;;;;5099884;28;20020;-81
2021/09/12 04:23:14;;;;;;;11.30;6.60;;;;;;;;;;5099792;28;20069;-82
2021/09/12 04:25:40;;;;;;;11.13;6.97;;;;;;;;;;5099107;28;20024;-81
2021/09/12 04:28:06;;;;;;;13.25;6.40;;;;;;;;;;5099977;28;20024;-81
2021/09/12 04:30:32;;;;;;;18.30;6.95;;;;;;;;;;5098918;28;20024;-81
2021/09/12 04:32:58;;;;;;;16.25;6.70;;;;;;;;;;5099721;28;20024;-82
2021/09/12 04:35:24;;;;;;;14.25;6.70;;;;;;;;;;5099963;28;20020;-83
2021/09/12 04:37:50;;;;;;;16.40;6.95;;;;;;;;;;5098754;28;20032;-82
2021/09/12 04:40:16;;;;;;;17.08;6.93;;;;;;;;;;5099748;28;20012;-82
2021/09/12 04:42:42;;;;;;;11.93;6.53;;;;;;;;;;5099532;28;20111;-82
2021/09/12 04:45:09;;;;;;;18.58;6.70;;;;;;;;;;5099811;28;20024;-82
2021/09/12 04:47:35;;;;;;;15.43;7.80;;;;;;;;;;5098716;28;20032;-82
2021/09/12 04:50:01;;;;;;;17.98;6.95;;;;;;;;;;5098511;28;20024;-82
2021/09/12 04:52:27;;;;;;;16.52;7.30;;;;;;;;;;5098393;28;20024;-81
2021/09/12 04:54:53;;;;;;;19.88;7.40;;;;;;;;;;5099303;28;20024;-81
2021/09/12 04:57:20;;;;;;;17.23;7.35;;;;;;;;;;5099366;28;20079;-81
2021/09/12 04:59:46;;;;;;;12.40;7.32;;;;;;;;;;5099450;28;20128;-81
2021/09/12 05:02:12;;;;;;;18.83;7.45;;;;;;;;;;5099028;28;20040;-82
2021/09/12 05:04:38;;;;;;;20.45;8.50;;;;;;;;;;5099044;28;20024;-83
2021/09/12 05:07:04;;;;;;;18.05;7.78;;;;;;;;;;5099073;28;20089;-83
2021/09/12 05:09:30;;;;;;;20.20;8.73;;;;;;;;;;5099102;28;20318;-82
2021/09/12 05:11:56;;;;;;;19.15;9.30;;;;;;;;;;5097987;28;20035;-82
2021/09/12 05:14:25;;;;;;;21.48;8.68;;;;;;;;;;5098924;28;20024;-82
2021/09/12 05:16:51;;;;;;;21.90;8.40;;;;;;;;;;5099025;28;20031;-82
2021/09/12 05:19:17;;;;;;;16.85;8.15;;;;;;;;;;5098719;28;20024;-83
2021/09/12 05:21:43;;;;;;;20.30;8.20;;;;;;;;;;5097859;28;20020;-82
2021/09/12 05:24:09;;;;;;;24.70;9.02;;;;;;;;;;5098787;28;20024;-83
2021/09/12 05:26:35;;;;;;;20.80;9.15;;;;;;;;;;5097613;28;20055;-82
2021/09/12 05:29:01;;;;;;;17.45;9.30;;;;;;;;;;5097685;28;20028;-83
2021/09/12 05:31:27;;;;;;;15.25;7.85;;;;;;;;;;5098675;28;20054;-82
2021/09/12 05:33:53;;;;;;;18.50;8.55;;;;;;;;;;5098525;28;20118;-82
2021/09/12 05:36:19;;;;;;;14.80;7.82;;;;;;;;;;5098681;28;20098;-82
2021/09/12 05:38:46;;;;;;;17.05;8.38;;;;;;;;;;5098610;28;20129;-82
2021/09/12 05:41:12;;;;;;;16.60;8.68;;;;;;;;;;5097422;28;20402;-83
2021/09/12 05:43:38;;;;;;;15.77;9.23;;;;;;;;;;5098407;28;20510;-82
2021/09/12 05:46:04;;;;;;;16.65;8.23;;;;;;;;;;5098503;28;20038;-82
2021/09/12 05:48:30;;;;;;;14.60;8.65;;;;;;;;;;5098232;28;20031;-82
2021/09/12 05:50:56;;;;;;;15.50;9.02;;;;;;;;;;5098150;28;20028;-82
2021/09/12 05:53:24;;;;;;;15.82;9.07;;;;;;;;;;5098459;28;20024;-83
2021/09/12 05:55:50;;;;;;;12.40;8.20;;;;;;;;;;5098196;28;20107;-83
2021/09/12 05:58:16;;;;;;;16.17;8.63;;;;;;;;;;5098272;28;20024;-83
2021/09/12 06:00:42;;;;;;;16.10;9.20;;;;;;;;;;5098031;28;20016;-82
2021/09/12 06:03:09;;;;;;;14.38;8.63;;;;;;;;;;5097839;28;20028;-82
2021/09/12 06:05:35;;;;;;;18.85;8.82;;;;;;;;;;5097511;28;20020;-82
2021/09/12 06:08:01;;;;;;;13.23;9.02;;;;;;;;;;5096776;28;20130;-82
2021/09/12 06:10:27;;;;;;;16.33;10.10;;;;;;;;;;5097883;28;20027;-82
2021/09/12 06:12:53;;;;;;;15.15;9.35;;;;;;;;;;5096826;28;20271;-82
2021/09/12 06:15:19;;;;;;;16.17;8.65;;;;;;;;;;5097928;28;20024;-82
2021/09/12 06:17:45;;;;;;;15.30;9.70;;;;;;;;;;5096599;28;20059;-82
2021/09/12 06:20:12;;;;;;;13.65;10.07;;;;;;;;;;5097761;28;20065;-82
2021/09/12 06:22:48;;;;;;;14.80;9.32;;;;;;;;;;5096766;28;20067;-82
2021/09/12 06:25:14;;;;;;;16.85;10.32;;;;;;;;;;5097922;28;20024;-82
2021/09/12 06:27:40;;;;;;;16.92;11.20;;;;;;;;;;5097721;28;20032;-82
2021/09/12 06:30:07;;;;;;;15.65;10.50;;;;;;;;;;5097559;28;20028;-82
2021/09/12 06:32:33;;;;;;;16.10;12.27;;;;;;;;;;5096512;28;20042;-82
2021/09/12 06:35:00;;;;;;;18.38;10.25;;;;;;;;;;5096544;28;20424;-82
2021/09/12 06:37:26;;;;;;;21.77;11.10;;;;;;;;;;5096374;28;20028;-82
2021/09/12 06:39:52;;;;;;;17.25;12.50;;;;;;;;;;5097556;28;20020;-82
2021/09/12 06:42:18;;;;;;;19.23;10.68;;;;;;;;;;5096434;28;20024;-82
2021/09/12 06:44:44;;;;;;;15.52;8.88;;;;;;;;;;5097526;28;20024;-82
2021/09/12 06:47:10;;;;;;;15.60;8.82;;;;;;;;;;5097339;28;20058;-82
2021/09/12 06:49:36;;;;;;;20.15;11.13;;;;;;;;;;5097314;28;20024;-82
2021/09/12 06:52:03;;;;;;;18.60;11.15;;;;;;;;;;5096314;28;20028;-82
2021/09/12 06:54:29;;;;;;;23.50;12.52;;;;;;;;;;5097444;28;20027;-82
2021/09/12 06:56:55;;;;;;;23.90;12.95;;;;;;;;;;5096951;28;20114;-82
2021/09/12 06:59:21;;;;;;;21.42;10.57;;;;;;;;;;5097345;28;20016;-82
2021/09/12 07:01:47;;;;;;;15.57;10.93;;;;;;;;;;5097112;28;20020;-82
2021/09/12 07:04:13;;;;;;;21.65;10.88;;;;;;;;;;5097150;28;20097;-83
2021/09/12 07:06:39;;;;;;;18.13;11.63;;;;;;;;;;5097193;28;20048;-83
2021/09/12 07:09:05;;;;;;;20.05;10.65;;;;;;;;;;5097347;28;20069;-83
2021/09/12 07:11:31;;;;;;;16.83;10.50;;;;;;;;;;5097200;28;20024;-83
2021/09/12 07:13:58;;;;;;;16.58;9.90;;;;;;;;;;5096250;28;20356;-82
2021/09/12 07:16:24;;;;;;;19.92;11.00;;;;;;;;;;5097269;28;20028;-83
2021/09/12 07:18:50;;;;;;;18.08;7.82;;;;;;;;;;5099577;28;20145;-83
2021/09/12 07:21:16;;;;;;;16.88;8.20;;;;;;;;;;5101166;28;20119;-83
2021/09/12 07:23:42;;;;;;;19.27;8.90;;;;;;;;;;5100936;28;20032;-82
2021/09/12 07:26:08;;;;;;;15.40;8.40;;;;;;;;;;5100117;28;20295;-83
2021/09/12 07:28:34;;;;;;;15.07;8.60;;;;;;;;;;5101085;28;20028;-83
2021/09/12 07:31:00;;;;;;;15.45;8.00;;;;;;;;;;5100966;28;20390;-83
2021/09/12 07:33:26;;;;;;;14.70;8.23;;;;;;;;;;5100882;28;20024;-83
2021/09/12 07:35:52;;;;;;;19.58;8.73;;;;;;;;;;5100792;28;20047;-82
2021/09/12 07:38:18;;;;;;;13.20;8.88;;;;;;;;;;5100898;28;20062;-82
2021/09/12 07:40:44;;;;;;;12.45;7.95;;;;;;;;;;5099768;28;20028;-82
2021/09/12 07:43:10;;;;;;;16.02;7.97;;;;;;;;;;5100756;28;20061;-82
2021/09/12 07:45:36;;;;;;;10.52;7.40;;;;;;;;;;5100498;28;20095;-83
2021/09/12 07:48:03;;;;;;;14.63;7.88;;;;;;;;;;5099642;28;20414;-83
2021/09/12 07:50:29;;;;;;;13.93;7.97;;;;;;;;;;5099851;28;20036;-82
2021/09/12 07:52:55;;;;;;;12.02;8.18;;;;;;;;;;5100607;28;20031;-82
2021/09/12 07:55:21;;;;;;;11.32;8.73;;;;;;;;;;5100175;28;20031;-82
2021/09/12 07:57:47;;;;;;;13.32;9.00;;;;;;;;;;5100355;28;20417;-82
2021/09/12 08:00:13;;;;;;;16.73;9.15;;;;;;;;;;5100512;28;20020;-82
2021/09/12 08:02:40;;;;;;;16.73;9.02;;;;;;;;;;5100277;28;20024;-83
2021/09/12 08:05:06;;;;;;;19.50;9.18;;;;;;;;;;5100379;28;20027;-82
2021/09/12 08:07:32;;;;;;;23.77;10.98;;;;;;;;;;5100117;28;20044;-81
2021/09/12 08:09:59;;;;;;;14.57;8.23;;;;;;;;;;5100215;28;20020;-82
2021/09/12 08:12:25;;;;;;;18.20;8.98;;;;;;;;;;5100211;28;20032;-82
2021/09/12 08:14:52;;;;;;;15.25;8.25;;;;;;;;;;5100080;28;20430;-83
2021/09/12 08:17:19;;;;;;;20.70;8.13;;;;;;;;;;5098930;28;20044;-82
2021/09/12 08:19:45;;;;;;;19.63;8.02;;;;;;;;;;5099952;28;20017;-82
2021/09/12 08:22:11;;;;;;;19.60;8.43;;;;;;;;;;5100003;28;20114;-82
2021/09/12 08:24:37;;;;;;;15.88;8.10;;;;;;;;;;5100355;28;20020;-82
2021/09/12 08:27:03;;;;;;;14.10;7.00;;;;;;;;;;5099981;28;20065;-82
2021/09/12 08:29:29;;;;;;;16.58;7.63;;;;;;;;;;5098739;28;20035;-82
2021/09/12 08:31:57;;;;;;;13.65;7.03;;;;;;;;;;5099833;28;20409;-82
2021/09/12 08:34:24;;;;;;;9.98;6.32;;;;;;;;;;5098711;28;20434;-82
2021/09/12 08:36:50;;;;;;;10.45;6.60;;;;;;;;;;5098929;28;20093;-82
2021/09/12 08:39:16;;;;;;;11.25;7.18;;;;;;;;;;5099542;28;20024;-82
2021/09/12 08:41:42;;;;;;;12.60;5.68;;;;;;;;;;5098919;28;20119;-82
2021/09/12 08:44:09;;;;;;;10.02;5.55;;;;;;;;;;5098850;28;20033;-83
2021/09/12 08:46:35;;;;;;;10.93;6.03;;;;;;;;;;5099766;28;20024;-82
2021/09/12 08:49:01;;;;;;;9.75;6.15;;;;;;;;;;5099463;28;20024;-82
2021/09/12 08:51:28;;;;;;;14.35;5.60;;;;;;;;;;5099591;28;20158;-83
2021/09/12 08:53:54;;;;;;;13.00;5.68;;;;;;;;;;5099676;28;20145;-83
2021/09/12 08:56:20;;;;;;;11.02;5.60;;;;;;;;;;5099143;28;20035;-83
2021/09/12 08:58:46;;;;;;;11.43;5.18;;;;;;;;;;5098573;28;20032;-83
2021/09/12 09:01:12;;;;;;;7.03;5.18;;;;;;;;;;5098491;28;20074;-83
2021/09/12 09:03:41;;;;;;;7.70;5.35;;;;;;;;;;5098500;28;20115;-83
2021/09/12 09:06:11;;;;;;;9.57;5.30;;;;;;;;;;5097850;28;20028;-83
2021/09/12 09:08:50;;;;;;;8.77;4.72;;;;;;;;;;5099258;28;20016;-83
2021/09/12 09:11:26;;;;;;;7.22;4.93;;;;;;;;;;5098389;28;20036;-83
2021/09/12 09:13:52;;;;;;;9.18;5.28;;;;;;;;;;5099078;28;20020;-82
2021/09/12 09:16:26;;;;;;;10.88;6.78;;;;;;;;;;5098195;28;20035;-82
2021/09/12 09:19:01;;;;;;;18.42;7.90;;;;;;;;;;5099134;28;20060;-82
2021/09/12 09:21:29;;;;;;;10.80;5.45;;;;;;;;;;5099058;28;20028;-82
2021/09/12 09:24:13;;;;;;;13.32;8.00;;;;;;;;;;5098781;28;20012;-86
2021/09/12 09:26:47;;;;;;;20.45;10.23;;;;;;;;;;5098740;28;20415;-83
2021/09/12 09:29:14;;;;;;;9.25;6.82;;;;;;;;;;5098496;28;20047;-82
2021/09/12 09:31:40;;;;;;;7.10;4.85;;;;;;;;;;5099044;28;20028;-83
2021/09/12 09:34:13;;;;;;;16.67;10.55;;;;;;;;;;5098622;28;20027;-82
2021/09/12 09:36:39;;;;;;;10.68;6.00;;;;;;;;;;5098821;28;20066;-83
2021/09/12 09:39:05;;;;;;;11.90;7.22;;;;;;;;;;5098349;28;20452;-82
2021/09/12 09:41:35;;;;;;;9.48;4.50;;;;;;;;;;5097457;28;20028;-83
2021/09/12 09:44:06;;;;;;;12.43;7.75;;;;;;;;;;5098571;28;20031;-82
2021/09/12 09:46:34;;;;;;;11.52;6.47;;;;;;;;;;5098694;28;20299;-83
2021/09/12 09:49:01;;;;;;;8.80;4.57;;;;;;;;;;5098723;28;20028;-83
2021/09/12 09:51:30;;;;;;;10.15;4.50;;;;;;;;;;5098298;28;20321;-83
2021/09/12 09:53:58;;;;;;;15.43;7.15;;;;;;;;;;5098234;28;20035;-83
2021/09/12 09:56:24;;;;;;;10.65;7.57;;;;;;;;;;5097261;28;20040;-83
2021/09/12 09:58:51;;;;;;;22.90;13.55;;;;;;;;;;5098209;28;20051;-83
2021/09/12 10:01:17;;;;;;;23.58;13.25;;;;;;;;;;5098279;28;20356;-83
2021/09/12 10:03:43;;;;;;;10.80;5.47;;;;;;;;;;5098201;28;20054;-83
2021/09/12 10:06:09;;;;;;;24.42;15.95;;;;;;;;;;5097915;28;20031;-82
2021/09/12 10:08:35;;;;;;;7.28;4.90;;;;;;;;;;5098013;28;20024;-83
2021/09/12 10:11:01;;;;;;;16.85;9.48;;;;;;;;;;5097634;28;20032;-82
2021/09/12 10:13:28;;;;;;;20.95;13.20;;;;;;;;;;5097943;28;20020;-83
2021/09/12 10:15:56;;;;;;;17.55;12.07;;;;;;;;;;5097973;28;20056;-82
2021/09/12 10:18:24;;;;;;;14.23;9.27;;;;;;;;;;5097789;28;20024;-82
2021/09/12 10:20:50;;;;;;;12.65;5.60;;;;;;;;;;5097626;28;20016;-82
2021/09/12 10:23:16;;;;;;;9.45;3.90;;;;;;;;;;5096970;28;20039;-82
2021/09/12 10:25:42;;;;;;;21.30;8.60;;;;;;;;;;5096897;28;20321;-82
2021/09/12 10:28:11;;;;;;;22.27;8.50;;;;;;;;;;5097688;28;20030;-82
2021/09/12 10:30:38;;;;;;;20.10;11.55;;;;;;;;;;5097794;28;20039;-82
2021/09/12 10:33:08;;;;;;;18.92;12.32;;;;;;;;;;5096612;28;20107;-81
2021/09/12 10:35:38;;;;;;;10.52;7.05;;;;;;;;;;5096922;28;20067;-82
2021/09/12 10:38:08;;;;;;;7.80;5.10;;;;;;;;;;5097431;28;20028;-82
2021/09/12 10:40:48;;;;;;;11.48;4.28;;;;;;;;;;5097730;28;20074;-82
2021/09/12 10:43:30;;;;;;;7.68;4.25;;;;;;;;;;5096635;28;20421;-83
2021/09/12 10:45:56;;;;;;;7.93;3.95;;;;;;;;;;5097752;28;20032;-82
2021/09/12 10:48:22;;;;;;;6.53;4.13;;;;;;;;;;5097511;28;20028;-82
2021/09/12 10:50:48;;;;;;;6.72;3.63;;;;;;;;;;5097403;28;20024;-82
2021/09/12 10:53:14;;;;;;;6.28;3.47;;;;;;;;;;5097199;28;20032;-82
2021/09/12 10:56:00;;;;;;;8.43;3.22;;;;;;;;;;5096357;28;20024;-82
2021/09/12 10:58:30;;;;;;;6.95;3.65;;;;;;;;;;5097285;28;20065;-83
2021/09/12 11:00:57;;;;;;;9.73;3.63;;;;;;;;;;5096477;28;20063;-83
2021/09/12 11:03:23;;;;;;;8.52;6.35;;;;;;;;;;5097346;28;20119;-82
2021/09/12 11:05:49;;;;;;;7.03;3.40;;;;;;;;;;5097210;28;20123;-82
2021/09/12 11:08:15;;;;;;;8.82;4.03;;;;;;;;;;5097248;28;20040;-83
2021/09/12 11:10:44;;;;;;;9.70;5.22;;;;;;;;;;5096305;28;20123;-83
2021/09/12 11:13:10;;;;;;;4.78;3.83;;;;;;;;;;5096351;28;20064;-82
2021/09/12 11:15:36;;;;;;;5.38;3.45;;;;;;;;;;5097370;28;20021;-83
2021/09/12 11:18:02;;;;;;;10.70;5.25;;;;;;;;;;5097238;28;20027;-82
2021/09/12 11:20:45;;;;;;;12.02;5.43;;;;;;;;;;5097059;28;20402;-81
2021/09/12 11:23:11;;;;;;;12.90;4.50;;;;;;;;;;5096472;28;20322;-81
2021/09/12 11:25:38;;;;;;;14.63;5.03;;;;;;;;;;5097065;28;20085;-80
2021/09/12 11:28:05;;;;;;;12.50;4.43;;;;;;;;;;5096927;28;20035;-81
2021/09/12 11:30:31;;;;;;;10.32;3.60;;;;;;;;;;5097047;28;20032;-81
2021/09/12 11:32:57;;;;;;;10.23;4.20;;;;;;;;;;5096791;28;20032;-81
2021/09/12 11:35:24;;;;;;;7.70;3.95;;;;;;;;;;5095728;28;20020;-81
2021/09/12 11:38:22;;;;;;;4.30;3.10;;;;;;;;;;5096195;28;20032;-81
2021/09/12 11:40:55;;;;;;;9.10;3.70;;;;;;;;;;5037985;28;20036;-81
2021/09/12 11:43:21;;;;;;;8.05;3.90;;;;;;;;;;5054535;28;20041;-81
2021/09/12 11:45:48;;;;;;;5.28;3.20;;;;;;;;;;5054652;28;20048;-81
2021/09/12 11:48:15;;;;;;;4.90;3.00;;;;;;;;;;5054630;28;20040;-81
2021/09/12 11:50:41;;;;;;;6.32;3.28;;;;;;;;;;5054548;28;20430;-81
2021/09/12 11:53:11;;;;;;;4.97;3.13;;;;;;;;;;5054583;28;20473;-81
2021/09/12 11:55:40;;;;;;;4.53;2.90;;;;;;;;;;5054793;28;20037;-81
2021/09/12 11:58:11;;;;;;;5.18;2.90;;;;;;;;;;5037692;28;20404;-81
2021/09/12 12:00:47;;;;;;;6.70;3.47;;;;;;;;;;5054509;28;20093;-81
2021/09/12 12:03:17;;;;;;;6.53;3.40;;;;;;;;;;5054381;28;20049;-80
2021/09/12 12:05:44;;;;;;;4.72;2.70;;;;;;;;;;5057766;28;20334;-81
2021/09/12 12:08:15;;;;;;;4.35;2.95;;;;;;;;;;5041197;28;20457;-81
2021/09/12 12:10:42;;;;;;;7.97;3.20;;;;;;;;;;5040998;28;20041;-81
2021/09/12 12:13:08;;;;;;;5.28;2.70;;;;;;;;;;5057589;28;20104;-80
2021/09/12 12:15:35;;;;;;;6.25;3.08;;;;;;;;;;5061416;28;20036;-80
2021/09/12 12:18:01;;;;;;;5.03;2.33;;;;;;;;;;5079927;28;20028;-80
2021/09/12 12:20:33;;;;;;;3.55;2.97;;;;;;;;;;5079965;28;20094;-80
2021/09/12 12:23:23;;;;;;;6.50;2.58;;;;;;;;;;5079886;28;20403;-80
2021/09/12 12:25:50;;;;;;;5.93;3.10;;;;;;;;;;5077609;28;20076;-80
2021/09/12 12:28:17;;;;;;;5.32;3.00;;;;;;;;;;5077626;28;20334;-80
2021/09/12 12:30:44;;;;;;;6.00;2.83;;;;;;;;;;5077680;28;20044;-80
2021/09/12 12:33:11;;;;;;;4.40;2.88;;;;;;;;;;5077749;28;20024;-80
2021/09/12 12:35:37;;;;;;;4.20;3.20;;;;;;;;;;5076836;28;20031;-80
2021/09/12 12:38:03;;;;;;;9.45;3.05;;;;;;;;;;5077423;28;20114;-80
2021/09/12 12:40:29;;;;;;;3.95;3.30;;;;;;;;;;5077508;28;20028;-80
2021/09/12 12:43:05;;;;;;;6.88;3.55;;;;;;;;;;5077516;28;20074;-80
2021/09/12 12:45:37;;;;;;;4.80;2.97;;;;;;;;;;5077587;28;20098;-81
2021/09/12 12:48:03;;;;;;;13.63;3.00;;;;;;;;;;5077394;28;20074;-81
2021/09/12 12:50:37;;;;;;;7.93;4.05;;;;;;;;;;5077281;28;20033;-80
2021/09/12 12:53:24;;;;;;;9.77;4.55;;;;;;;;;;5077311;28;20036;-81
2021/09/12 12:55:53;;;;;;;4.75;3.20;;;;;;;;;;5077266;28;20329;-81
2021/09/12 12:58:19;;;;;;;6.00;2.85;;;;;;;;;;5076976;28;20029;-81
2021/09/12 13:00:46;;;;;;;6.95;3.30;;;;;;;;;;5077113;28;20031;-81
2021/09/12 13:03:12;;;;;;;5.18;3.28;;;;;;;;;;5078179;28;20410;-81
2021/09/12 13:05:38;;;;;;;4.60;2.72;;;;;;;;;;5078952;28;20031;-81
2021/09/12 13:08:06;;;;;;;6.90;3.70;;;;;;;;;;5077991;28;20086;-81
2021/09/12 13:10:36;;;;;;;6.00;3.10;;;;;;;;;;5061404;28;20033;-81
2021/09/12 13:13:03;;;;;;;6.13;3.28;;;;;;;;;;5078476;28;20033;-81
2021/09/12 13:15:29;;;;;;;6.43;3.15;;;;;;;;;;5078700;28;20059;-81
2021/09/12 13:17:55;;;;;;;5.82;3.05;;;;;;;;;;5077515;28;20028;-80
2021/09/12 13:20:23;;;;;;;7.30;3.20;;;;;;;;;;5078655;28;20013;-81
2021/09/12 13:22:50;;;;;;;8.07;3.33;;;;;;;;;;5078441;28;20031;-81
2021/09/12 13:25:16;;;;;;;7.80;3.22;;;;;;;;;;5078653;28;20112;-80
2021/09/12 13:27:42;;;;;;;5.35;2.97;;;;;;;;;;5077658;28;20326;-80
2021/09/12 13:30:08;;;;;;;4.57;2.85;;;;;;;;;;5078366;28;20031;-81
2021/09/12 13:32:34;;;;;;;4.75;2.80;;;;;;;;;;5078517;28;20414;-81
2021/09/12 13:35:00;;;;;;;4.80;3.72;;;;;;;;;;5078477;28;20350;-82
2021/09/12 13:37:26;;;;;;;8.13;3.30;;;;;;;;;;5078447;28;20032;-81
2021/09/12 13:39:52;;;;;;;4.65;3.00;;;;;;;;;;5078425;28;20024;-81
2021/09/12 13:42:20;;;;;;;9.73;3.15;;;;;;;;;;5077057;28;20056;-80
2021/09/12 13:44:46;;;;;;;4.95;2.70;;;;;;;;;;5077999;28;20303;-81
2021/09/12 13:47:12;;;;;;;5.30;2.95;;;;;;;;;;5078003;28;20067;-80
2021/09/12 13:49:38;;;;;;;6.53;2.50;;;;;;;;;;5077220;28;20154;-81
2021/09/12 13:52:04;;;;;;;5.70;2.80;;;;;;;;;;5078021;28;20029;-81
2021/09/12 13:54:31;;;;;;;5.47;2.40;;;;;;;;;;5077164;28;20073;-81
2021/09/12 13:56:57;;;;;;;11.75;2.70;;;;;;;;;;5077809;28;20028;-80
2021/09/12 13:59:24;;;;;;;9.13;2.90;;;;;;;;;;5077868;28;20101;-81
2021/09/12 14:01:50;;;;;;;8.60;4.30;;;;;;;;;;5077417;28;20028;-81
2021/09/12 14:04:16;;;;;;;5.43;3.72;;;;;;;;;;5076637;28;20165;-81
2021/09/12 14:06:42;;;;;;;6.50;2.85;;;;;;;;;;5077328;28;20052;-81
2021/09/12 14:09:08;;;;;;;7.22;3.97;;;;;;;;;;5077605;28;20035;-81
2021/09/12 14:11:34;;;;;;;5.85;3.15;;;;;;;;;;5077579;28;20507;-81
2021/09/12 14:14:00;;;;;;;7.40;3.25;;;;;;;;;;5077522;28;20025;-81
2021/09/12 14:16:26;;;;;;;14.32;11.60;;;;;;;;;;5076743;28;20415;-81
2021/09/12 14:18:52;;;;;;;13.35;9.25;;;;;;;;;;5077550;28;20036;-81
2021/09/12 14:21:18;;;;;;;9.63;6.53;;;;;;;;;;5077269;28;20016;-81
2021/09/12 14:23:49;;;;;;;10.32;4.50;;;;;;;;;;5077393;28;20021;-81
2021/09/12 14:26:15;;;;;;;8.73;4.93;;;;;;;;;;5077320;28;20112;-80
2021/09/12 14:28:41;;;;;;;6.45;3.63;;;;;;;;;;5077082;28;20029;-81
2021/09/12 14:31:11;;;;;;;6.25;3.10;;;;;;;;;;5077322;28;20098;-81
2021/09/12 14:33:37;;;;;;;5.22;3.72;;;;;;;;;;5077425;28;20054;-81